createdAt,value
2023-03-01T00:01:35.456Z,6.65
2023-03-01T00:04:02.376Z,6.80
2023-03-01T00:06:29.689Z,6.45
2023-03-01T00:08:57.250Z,6.45
2023-03-01T00:11:26.797Z,6.60
2023-03-01T00:13:56.200Z,6.10
2023-03-01T00:16:26.883Z,6.60
2023-03-01T00:18:54.783Z,6.22
2023-03-01T00:21:23.125Z,6.85
2023-03-01T00:23:50.283Z,6.32
2023-03-01T00:26:19.004Z,5.50
2023-03-01T00:28:46.728Z,5.90
2023-03-01T00:31:16.038Z,5.70
2023-03-01T00:33:44.800Z,6.78
2023-03-01T00:36:13.369Z,6.15
2023-03-01T00:38:41.975Z,5.97
2023-03-01T00:41:11.032Z,5.93
2023-03-01T00:43:38.197Z,6.32
2023-03-01T00:46:07.070Z,6.47
2023-03-01T00:48:34.198Z,5.63
2023-03-01T00:51:07.807Z,6.35
2023-03-01T00:53:35.215Z,5.40
2023-03-01T00:56:02.418Z,6.93
2023-03-01T00:58:29.653Z,6.13
2023-03-01T01:00:56.680Z,6.03
2023-03-01T01:03:25.807Z,7.15
2023-03-01T01:05:53.233Z,6.53
2023-03-01T01:08:22.000Z,6.13
2023-03-01T01:10:49.129Z,6.28
2023-03-01T01:13:16.099Z,5.05
2023-03-01T01:15:43.238Z,6.25
2023-03-01T01:18:10.246Z,5.63
2023-03-01T01:20:38.454Z,5.88
2023-03-01T01:23:07.623Z,5.82
2023-03-01T01:25:37.868Z,6.35
2023-03-01T01:28:04.962Z,5.53
2023-03-01T01:30:31.908Z,5.90
2023-03-01T01:32:58.854Z,6.15
2023-03-01T01:35:25.965Z,5.75
2023-03-01T01:37:52.977Z,4.82
2023-03-01T01:40:20.164Z,5.45
2023-03-01T01:42:48.476Z,5.28
2023-03-01T01:45:31.613Z,5.65
2023-03-01T01:48:02.118Z,6.05
2023-03-01T01:50:38.696Z,5.75
2023-03-01T01:53:10.218Z,5.63
2023-03-01T01:55:41.987Z,5.93
2023-03-01T01:58:12.121Z,5.80
2023-03-01T02:00:40.171Z,6.18
2023-03-01T02:03:11.108Z,6.30
2023-03-01T02:05:44.352Z,6.05
2023-03-01T02:08:13.483Z,5.93
2023-03-01T02:10:41.790Z,5.75
2023-03-01T02:13:12.007Z,6.05
2023-03-01T02:15:40.768Z,5.88
2023-03-01T02:18:09.414Z,6.22
2023-03-01T02:20:46.537Z,6.25
2023-03-01T02:23:13.483Z,5.65
2023-03-01T02:25:48.060Z,6.22
2023-03-01T02:28:30.452Z,6.43
2023-03-01T02:31:16.436Z,6.65
2023-03-01T02:33:45.128Z,6.45
2023-03-01T02:36:15.514Z,5.63
2023-03-01T02:38:43.806Z,5.93
2023-03-01T02:41:13.267Z,5.95
2023-03-01T02:43:41.852Z,6.68
2023-03-01T02:46:15.617Z,6.63
2023-03-01T02:48:44.995Z,6.53
2023-03-01T02:51:24.655Z,6.10
2023-03-01T02:54:02.706Z,5.53
2023-03-01T02:56:31.024Z,6.47
2023-03-01T02:59:01.777Z,7.53
2023-03-01T03:01:37.591Z,6.90
2023-03-01T03:04:07.039Z,6.53
2023-03-01T03:06:34.575Z,6.50
2023-03-01T03:09:01.752Z,7.20
2023-03-01T03:11:28.936Z,7.15
2023-03-01T03:13:56.218Z,6.88
2023-03-01T03:16:25.714Z,6.75
2023-03-01T03:18:52.791Z,6.40
2023-03-01T03:21:19.754Z,6.00
2023-03-01T03:23:46.672Z,6.72
2023-03-01T03:26:14.417Z,5.55
2023-03-01T03:28:41.433Z,5.65
2023-03-01T03:31:09.383Z,6.18
2023-03-01T03:33:38.156Z,6.20
2023-03-01T03:36:06.002Z,6.25
2023-03-01T03:38:33.321Z,5.55
2023-03-01T03:41:05.351Z,5.75
2023-03-01T03:43:33.955Z,4.78
2023-03-01T03:46:01.691Z,6.03
2023-03-01T03:48:28.713Z,6.32
2023-03-01T03:50:57.598Z,6.60
2023-03-01T03:53:26.623Z,6.55
2023-03-01T03:55:54.281Z,5.95
2023-03-01T03:58:23.677Z,5.47
2023-03-01T04:00:52.436Z,6.43
2023-03-01T04:03:20.875Z,6.80
2023-03-01T04:05:48.988Z,6.38
2023-03-01T04:08:17.955Z,6.18
2023-03-01T04:10:48.876Z,6.18
2023-03-01T04:13:20.711Z,6.80
2023-03-01T04:15:49.367Z,6.95
2023-03-01T04:18:18.205Z,6.40
2023-03-01T04:20:46.182Z,7.35
2023-03-01T04:23:16.923Z,7.28
2023-03-01T04:25:54.976Z,7.25
2023-03-01T04:28:22.946Z,7.13
2023-03-01T04:30:49.910Z,7.15
2023-03-01T04:33:16.958Z,7.85
2023-03-01T04:35:44.113Z,7.53
2023-03-01T04:38:11.516Z,7.25
2023-03-01T04:40:38.641Z,7.80
2023-03-01T04:43:06.988Z,7.50
2023-03-01T04:45:35.508Z,7.63
2023-03-01T04:48:03.050Z,7.93
2023-03-01T04:50:30.745Z,8.18
2023-03-01T04:53:00.226Z,8.95
2023-03-01T04:55:28.409Z,8.82
2023-03-01T04:57:55.966Z,7.93
2023-03-01T05:00:24.982Z,8.18
2023-03-01T05:02:54.789Z,10.55
2023-03-01T05:05:26.621Z,8.63
2023-03-01T05:07:55.855Z,8.13
2023-03-01T05:10:23.117Z,8.35
2023-03-01T05:12:50.088Z,8.98
2023-03-01T05:15:17.294Z,9.25
2023-03-01T05:17:45.632Z,8.68
2023-03-01T05:20:12.879Z,8.52
2023-03-01T05:22:39.845Z,9.13
2023-03-01T05:25:08.295Z,8.73
2023-03-01T05:27:35.938Z,9.95
2023-03-01T05:30:14.449Z,8.38
2023-03-01T05:32:44.009Z,9.07
2023-03-01T05:35:14.230Z,9.00
2023-03-01T05:37:42.712Z,8.93
2023-03-01T05:40:16.707Z,9.63
2023-03-01T05:42:44.620Z,9.50
2023-03-01T05:45:13.434Z,9.23
2023-03-01T05:47:44.443Z,9.70
2023-03-01T05:50:20.807Z,11.00
2023-03-01T05:52:53.538Z,10.40
2023-03-01T05:55:22.236Z,9.70
2023-03-01T05:57:49.489Z,9.82
2023-03-01T06:00:19.598Z,9.98
2023-03-01T06:02:46.777Z,9.55
2023-03-01T06:05:15.740Z,9.90
2023-03-01T06:07:42.863Z,9.27
2023-03-01T06:10:11.436Z,10.93
2023-03-01T06:12:39.844Z,9.93
2023-03-01T06:15:10.756Z,10.32
2023-03-01T06:17:39.495Z,9.65
2023-03-01T06:20:10.646Z,10.20
2023-03-01T06:22:39.183Z,10.68
2023-03-01T06:25:07.353Z,11.45
2023-03-01T06:27:34.295Z,11.75
2023-03-01T06:30:01.223Z,12.15
2023-03-01T06:32:28.200Z,11.73
2023-03-01T06:34:55.161Z,12.80
2023-03-01T06:37:22.057Z,12.25
2023-03-01T06:39:50.945Z,10.70
2023-03-01T06:42:17.858Z,12.65
2023-03-01T06:44:46.670Z,12.70
2023-03-01T06:47:13.673Z,11.85
2023-03-01T06:49:42.572Z,12.43
2023-03-01T06:52:09.507Z,12.10
2023-03-01T06:54:38.029Z,12.68
2023-03-01T06:57:06.357Z,11.43
2023-03-01T06:59:33.421Z,11.73
2023-03-01T07:02:00.434Z,11.48
2023-03-01T07:04:29.630Z,12.52
2023-03-01T07:06:56.588Z,11.75
2023-03-01T07:09:24.515Z,12.98
2023-03-01T07:11:51.778Z,12.80
2023-03-01T07:14:21.156Z,12.55
2023-03-01T07:16:48.418Z,12.35
2023-03-01T07:19:15.309Z,12.98
2023-03-01T07:21:42.273Z,11.50
2023-03-01T07:24:09.741Z,13.32
2023-03-01T07:26:37.285Z,11.90
2023-03-01T07:29:05.609Z,14.13
2023-03-01T07:31:34.047Z,12.63
2023-03-01T07:34:00.981Z,16.23
2023-03-01T07:36:28.021Z,13.60
2023-03-01T07:38:56.695Z,13.57
2023-03-01T07:41:23.667Z,12.55
2023-03-01T07:43:50.759Z,13.35
2023-03-01T07:46:18.806Z,12.15
2023-03-01T07:48:47.293Z,13.13
2023-03-01T07:51:14.463Z,11.38
2023-03-01T07:53:41.439Z,11.20
2023-03-01T07:56:10.235Z,10.73
2023-03-01T07:58:38.578Z,11.75
2023-03-01T08:01:07.286Z,10.73
2023-03-01T08:03:34.669Z,12.40
2023-03-01T08:06:04.232Z,12.35
2023-03-01T08:08:31.646Z,13.10
2023-03-01T08:10:58.712Z,12.57
2023-03-01T08:13:26.024Z,13.68
2023-03-01T08:15:53.600Z,12.98
2023-03-01T08:18:22.127Z,13.68
2023-03-01T08:20:49.350Z,12.05
2023-03-01T08:23:17.643Z,13.30
2023-03-01T08:25:44.795Z,12.80
2023-03-01T08:28:11.760Z,13.13
2023-03-01T08:30:41.470Z,13.63
2023-03-01T08:33:08.521Z,12.07
2023-03-01T08:35:35.557Z,12.70
2023-03-01T08:38:02.521Z,13.88
2023-03-01T08:40:30.846Z,13.27
2023-03-01T08:42:59.092Z,13.10
2023-03-01T08:45:26.192Z,12.95
2023-03-01T08:47:53.962Z,12.68
2023-03-01T08:50:21.049Z,13.02
2023-03-01T08:52:48.042Z,13.38
2023-03-01T08:55:17.319Z,13.32
2023-03-01T08:57:48.178Z,12.75
2023-03-01T09:00:16.256Z,12.82
2023-03-01T09:02:43.211Z,13.50
2023-03-01T09:05:10.383Z,13.73
2023-03-01T09:07:37.612Z,13.73
2023-03-01T09:10:06.093Z,13.57
2023-03-01T09:12:33.059Z,13.63
2023-03-01T09:15:01.384Z,13.45
2023-03-01T09:17:28.879Z,12.45
2023-03-01T09:19:55.808Z,14.00
2023-03-01T09:22:22.759Z,14.63
2023-03-01T09:24:52.513Z,13.95
2023-03-01T09:27:20.677Z,16.08
2023-03-01T09:29:47.653Z,14.20
2023-03-01T09:32:16.013Z,14.52
2023-03-01T09:35:01.766Z,13.32
2023-03-01T09:37:28.805Z,15.13
2023-03-01T09:39:55.762Z,15.85
2023-03-01T09:42:22.904Z,15.88
2023-03-01T09:44:58.631Z,15.20
2023-03-01T09:47:28.880Z,15.68
2023-03-01T09:50:03.062Z,14.43
2023-03-01T09:52:36.843Z,14.63
2023-03-01T09:55:11.451Z,13.65
2023-03-01T09:57:47.146Z,14.50
2023-03-01T10:00:24.636Z,14.18
2023-03-01T10:03:00.835Z,13.48
2023-03-01T10:05:44.614Z,13.63
2023-03-01T10:08:37.374Z,13.00
2023-03-01T10:11:05.914Z,13.65
2023-03-01T10:13:39.538Z,13.82
2023-03-01T10:16:14.816Z,14.27
2023-03-01T10:18:47.712Z,13.68
2023-03-01T10:21:17.747Z,19.05
2023-03-01T10:23:44.967Z,13.55
2023-03-01T10:26:33.621Z,14.07
2023-03-01T10:29:04.184Z,15.65
2023-03-01T10:31:40.427Z,15.20
2023-03-01T10:34:18.404Z,14.93
2023-03-01T10:36:49.352Z,14.95
2023-03-01T10:39:19.208Z,14.00
2023-03-01T10:41:56.229Z,13.90
2023-03-01T10:44:45.633Z,14.35
2023-03-01T10:47:25.694Z,11.77
2023-03-01T10:49:57.127Z,12.05
2023-03-01T10:52:26.876Z,12.70
2023-03-01T10:54:56.909Z,14.55
2023-03-01T10:57:39.930Z,13.48
2023-03-01T11:00:23.379Z,14.05
2023-03-01T11:02:52.896Z,13.38
2023-03-01T11:05:29.536Z,14.07
2023-03-01T11:07:58.607Z,14.50
2023-03-01T11:10:30.788Z,14.98
2023-03-01T11:13:08.104Z,14.90
2023-03-01T11:15:35.533Z,16.05
2023-03-01T11:18:13.843Z,15.65
2023-03-01T11:20:44.488Z,15.27
2023-03-01T11:23:16.944Z,16.40
2023-03-01T11:25:52.187Z,16.80
2023-03-01T11:31:05.738Z,15.50
2023-03-01T11:33:40.646Z,17.38
2023-03-01T11:36:17.690Z,16.20
2023-03-01T11:38:45.039Z,15.05
2023-03-01T11:41:17.214Z,15.85
2023-03-01T11:43:52.051Z,16.15
2023-03-01T11:46:44.329Z,18.77
2023-03-01T11:49:30.326Z,17.30
2023-03-01T11:52:08.512Z,15.25
2023-03-01T11:54:49.835Z,14.98
2023-03-01T11:57:37.772Z,16.98
2023-03-01T12:00:25.756Z,13.80
2023-03-01T12:03:21.047Z,14.35
2023-03-01T12:06:32.564Z,13.40
2023-03-01T12:09:15.358Z,13.63
2023-03-01T12:11:56.849Z,12.73
2023-03-01T12:14:55.565Z,13.85
2023-03-01T12:17:38.553Z,14.98
2023-03-01T12:20:23.525Z,14.65
2023-03-01T12:23:19.414Z,14.80
2023-03-01T12:25:54.453Z,13.32
2023-03-01T12:28:39.370Z,13.40
2023-03-01T12:31:41.367Z,14.77
2023-03-01T12:34:22.190Z,14.90
2023-03-01T12:37:02.730Z,14.63
2023-03-01T12:39:41.731Z,13.55
2023-03-01T12:42:22.289Z,14.60
2023-03-01T12:45:13.512Z,13.73
2023-03-01T12:47:58.796Z,16.13
2023-03-01T12:50:31.175Z,15.25
2023-03-01T12:52:58.782Z,13.60
2023-03-01T12:55:31.165Z,13.68
2023-03-01T12:58:05.943Z,13.77
2023-03-01T13:00:38.012Z,13.90
2023-03-01T13:03:16.336Z,13.75
2023-03-01T13:05:57.360Z,12.98
2023-03-01T13:08:30.931Z,18.73
2023-03-01T13:11:01.749Z,16.75
2023-03-01T13:13:30.869Z,14.98
2023-03-01T13:15:58.645Z,15.95
2023-03-01T13:18:31.801Z,13.32
2023-03-01T13:21:01.507Z,14.45
2023-03-01T13:23:32.035Z,13.77
2023-03-01T13:26:14.017Z,14.27
2023-03-01T13:28:50.840Z,14.50
2023-03-01T13:32:00.522Z,16.20
2023-03-01T13:34:51.325Z,14.98
2023-03-01T13:37:30.610Z,15.48
2023-03-01T13:39:59.857Z,16.45
2023-03-01T13:42:38.412Z,17.80
2023-03-01T13:45:18.158Z,16.15
2023-03-01T13:47:48.287Z,18.23
2023-03-01T13:50:22.224Z,19.27
2023-03-01T13:52:53.288Z,18.17
2023-03-01T13:55:24.558Z,18.75
2023-03-01T13:57:54.854Z,18.80
2023-03-01T14:00:35.618Z,15.48
2023-03-01T14:03:11.102Z,17.92
2023-03-01T14:05:39.536Z,17.02
2023-03-01T14:08:20.677Z,20.15
2023-03-01T14:11:00.021Z,19.33
2023-03-01T14:13:39.089Z,18.67
2023-03-01T14:16:19.339Z,17.70
2023-03-01T14:18:54.935Z,18.25
2023-03-01T14:21:23.645Z,19.92
2023-03-01T14:23:50.715Z,18.00
2023-03-01T14:26:22.533Z,17.75
2023-03-01T14:28:51.754Z,15.82
2023-03-01T14:31:52.003Z,18.83
2023-03-01T14:34:21.881Z,17.60
2023-03-01T14:36:48.880Z,17.05
2023-03-01T14:39:21.361Z,19.40
2023-03-01T14:41:49.779Z,19.15
2023-03-01T14:44:23.935Z,17.52
2023-03-01T14:46:56.117Z,19.42
2023-03-01T14:49:25.453Z,18.92
2023-03-01T14:51:56.120Z,19.20
2023-03-01T14:54:26.880Z,20.70
2023-03-01T14:56:55.015Z,18.80
2023-03-01T14:59:24.507Z,19.88
2023-03-01T15:01:52.909Z,19.02
2023-03-01T15:04:23.353Z,18.95
2023-03-01T15:06:52.868Z,20.73
2023-03-01T15:09:20.109Z,20.73
2023-03-01T15:11:47.119Z,20.10
2023-03-01T15:14:40.080Z,21.23
2023-03-01T15:17:21.953Z,18.95
2023-03-01T15:19:50.550Z,19.65
2023-03-01T15:22:18.482Z,19.73
2023-03-01T15:24:49.243Z,19.38
2023-03-01T15:27:18.220Z,18.00
2023-03-01T15:29:50.466Z,18.02
2023-03-01T15:32:28.215Z,19.02
2023-03-01T15:34:57.356Z,21.20
2023-03-01T15:37:45.670Z,19.30
2023-03-01T15:40:22.403Z,19.27
2023-03-01T15:42:49.628Z,20.23
2023-03-01T15:45:24.445Z,19.73
2023-03-01T15:47:53.756Z,19.95
2023-03-01T15:50:24.897Z,20.45
2023-03-01T15:52:52.249Z,19.88
2023-03-01T15:55:21.085Z,20.77
2023-03-01T15:57:48.921Z,18.88
2023-03-01T16:00:18.506Z,19.48
2023-03-01T16:02:45.783Z,19.40
2023-03-01T16:05:24.364Z,19.70
2023-03-01T16:07:52.056Z,18.77
2023-03-01T16:10:20.055Z,19.48
2023-03-01T16:12:48.443Z,21.42
2023-03-01T16:15:17.922Z,18.67
2023-03-01T16:17:45.171Z,26.75
2023-03-01T16:20:28.424Z,21.58
2023-03-01T16:22:56.873Z,25.85
2023-03-01T16:25:23.775Z,28.85
2023-03-01T16:27:52.000Z,25.95
2023-03-01T16:30:21.605Z,21.35
2023-03-01T16:32:49.702Z,22.65
2023-03-01T16:35:19.656Z,19.30
2023-03-01T16:37:48.920Z,21.70
2023-03-01T16:40:18.457Z,20.15
2023-03-01T16:42:45.525Z,19.98
2023-03-01T16:45:22.737Z,19.60
2023-03-01T16:47:50.611Z,20.75
2023-03-01T16:50:17.665Z,19.92
2023-03-01T16:52:44.616Z,19.95
2023-03-01T16:55:13.339Z,19.80
2023-03-01T16:57:41.540Z,19.30
2023-03-01T17:00:11.602Z,20.77
2023-03-01T17:02:38.839Z,21.23
2023-03-01T17:05:06.982Z,18.83
2023-03-01T17:07:35.217Z,21.67
2023-03-01T17:10:02.846Z,20.35
2023-03-01T17:12:31.283Z,19.65
2023-03-01T17:14:58.391Z,20.23
2023-03-01T17:17:25.449Z,23.67
2023-03-01T17:19:55.678Z,20.52
2023-03-01T17:22:22.977Z,20.52
2023-03-01T17:24:49.946Z,20.48
2023-03-01T17:27:17.891Z,22.35
2023-03-01T17:29:46.367Z,26.08
2023-03-01T17:32:13.661Z,25.20
2023-03-01T17:34:40.788Z,26.40
2023-03-01T17:37:07.895Z,23.52
2023-03-01T17:39:36.498Z,24.95
2023-03-01T17:42:06.185Z,23.02
2023-03-01T17:44:34.619Z,23.58
2023-03-01T17:47:03.842Z,22.30
2023-03-01T17:49:31.718Z,24.23
2023-03-01T17:51:59.115Z,24.05
2023-03-01T17:54:26.524Z,24.48
2023-03-01T17:56:53.567Z,25.13
2023-03-01T17:59:20.766Z,25.02
2023-03-01T18:01:48.184Z,25.58
2023-03-01T18:04:18.480Z,24.83
2023-03-01T18:06:45.593Z,25.80
2023-03-01T18:09:12.543Z,25.33
2023-03-01T18:11:42.034Z,25.55
2023-03-01T18:14:08.985Z,25.95
2023-03-01T18:16:36.435Z,24.75
2023-03-01T18:19:03.557Z,25.17
2023-03-01T18:21:32.886Z,24.17
2023-03-01T18:24:00.024Z,27.42
2023-03-01T18:26:28.083Z,26.08
2023-03-01T18:28:58.168Z,25.77
2023-03-01T18:31:25.620Z,24.00
2023-03-01T18:33:55.102Z,24.05
2023-03-01T18:36:24.385Z,23.58
2023-03-01T18:38:56.625Z,24.75
2023-03-01T18:41:25.281Z,24.35
2023-03-01T18:43:52.730Z,25.17
2023-03-01T18:46:22.914Z,24.88
2023-03-01T18:48:49.913Z,25.05
2023-03-01T18:51:18.356Z,25.48
2023-03-01T18:53:45.426Z,24.02
2023-03-01T18:56:14.364Z,24.63
2023-03-01T18:58:43.081Z,26.05
2023-03-01T19:01:14.321Z,25.63
2023-03-01T19:03:41.466Z,23.08
2023-03-01T19:06:08.491Z,22.77
2023-03-01T19:08:35.599Z,26.52
2023-03-01T19:11:05.392Z,23.08
2023-03-01T19:13:37.372Z,23.02
2023-03-01T19:16:07.016Z,23.10
2023-03-01T19:18:34.091Z,23.58
2023-03-01T19:21:04.289Z,22.45
2023-03-01T19:23:36.387Z,22.42
2023-03-01T19:26:09.037Z,24.70
2023-03-01T19:28:39.592Z,23.23
2023-03-01T19:31:08.466Z,24.48
2023-03-01T19:33:36.415Z,25.05
2023-03-01T19:36:04.828Z,24.75
2023-03-01T19:38:31.810Z,24.13
2023-03-01T19:40:58.875Z,23.98
2023-03-01T19:43:25.823Z,23.67
2023-03-01T19:45:55.252Z,24.30
2023-03-01T19:48:22.847Z,23.23
2023-03-01T19:50:52.290Z,23.85
2023-03-01T19:53:20.037Z,23.30
2023-03-01T19:55:46.987Z,23.45
2023-03-01T19:58:13.931Z,22.65
2023-03-01T20:00:44.942Z,22.75
2023-03-01T20:03:13.518Z,23.17
2023-03-01T20:05:42.817Z,20.65
2023-03-01T20:08:09.825Z,23.65
2023-03-01T20:10:36.777Z,22.17
2023-03-01T20:13:03.748Z,21.60
2023-03-01T20:15:31.159Z,21.60
2023-03-01T20:17:58.118Z,21.98
2023-03-01T20:20:26.595Z,21.42
2023-03-01T20:22:53.568Z,21.30
2023-03-01T20:25:20.512Z,22.58
2023-03-01T20:27:47.904Z,22.25
2023-03-01T20:30:15.657Z,22.52
2023-03-01T20:32:43.041Z,21.45
2023-03-01T20:35:11.333Z,20.45
2023-03-01T20:37:39.681Z,22.00
2023-03-01T20:40:09.586Z,20.48
2023-03-01T20:42:36.611Z,19.10
2023-03-01T20:45:04.374Z,21.15
2023-03-01T20:47:31.278Z,19.35
2023-03-01T20:50:01.455Z,19.80
2023-03-01T20:52:32.341Z,19.48
2023-03-01T20:55:08.310Z,20.27
2023-03-01T20:57:35.723Z,20.13
2023-03-01T21:00:06.847Z,17.92
2023-03-01T21:02:33.771Z,18.77
2023-03-01T21:05:00.805Z,19.92
2023-03-01T21:07:27.800Z,18.98
2023-03-01T21:09:54.808Z,19.90
2023-03-01T21:12:23.100Z,19.05
2023-03-01T21:14:50.036Z,18.55
2023-03-01T21:17:17.824Z,18.73
2023-03-01T21:19:45.264Z,20.45
2023-03-01T21:22:13.791Z,23.20
2023-03-01T21:24:40.976Z,20.75
2023-03-01T21:27:08.151Z,19.55
2023-03-01T21:29:37.355Z,20.27
2023-03-01T21:32:05.087Z,19.67
2023-03-01T21:34:32.542Z,21.88
2023-03-01T21:36:59.829Z,21.42
2023-03-01T21:39:28.946Z,21.90
2023-03-01T21:41:57.331Z,22.70
2023-03-01T21:44:25.113Z,21.05
2023-03-01T21:46:53.634Z,19.52
2023-03-01T21:49:21.841Z,19.13
2023-03-01T21:51:49.056Z,21.25
2023-03-01T21:54:17.741Z,20.52
2023-03-01T21:56:45.931Z,19.75
2023-03-01T21:59:15.062Z,20.40
2023-03-01T22:01:43.439Z,21.38
2023-03-01T22:04:13.168Z,21.38
2023-03-01T22:06:45.481Z,19.85
2023-03-01T22:09:14.497Z,22.02
2023-03-01T22:11:43.696Z,21.15
2023-03-01T22:14:13.612Z,20.20
2023-03-01T22:16:42.993Z,19.17
2023-03-01T22:19:12.213Z,19.67
2023-03-01T22:21:40.152Z,21.15
2023-03-01T22:24:08.198Z,21.33
2023-03-01T22:26:37.472Z,20.40
2023-03-01T22:29:06.771Z,19.30
2023-03-01T22:31:34.115Z,20.38
2023-03-01T22:34:02.000Z,22.73
2023-03-01T22:36:31.470Z,19.45
2023-03-01T22:39:00.281Z,20.92
2023-03-01T22:41:28.545Z,20.90
2023-03-01T22:43:55.648Z,21.88
2023-03-01T22:46:22.974Z,21.85
2023-03-01T22:48:50.074Z,21.33
2023-03-01T22:51:19.299Z,21.27
2023-03-01T22:53:48.260Z,20.73
2023-03-01T22:56:17.856Z,19.60
2023-03-01T22:58:45.291Z,20.45
2023-03-01T23:01:14.050Z,19.55
2023-03-01T23:03:41.369Z,18.98
2023-03-01T23:06:09.182Z,19.52
2023-03-01T23:08:36.724Z,20.45
2023-03-01T23:11:10.524Z,21.08
2023-03-01T23:13:37.557Z,21.42
2023-03-01T23:16:05.096Z,21.35
2023-03-01T23:18:32.020Z,21.13
2023-03-01T23:20:59.132Z,21.60
2023-03-01T23:23:26.733Z,20.50
2023-03-01T23:25:54.849Z,20.50
2023-03-01T23:28:23.702Z,20.83
2023-03-01T23:30:54.937Z,20.30
2023-03-01T23:33:21.963Z,19.02
2023-03-01T23:35:48.997Z,19.35
2023-03-01T23:38:15.975Z,19.15
2023-03-01T23:40:43.039Z,19.50
2023-03-01T23:43:10.071Z,19.40
2023-03-01T23:45:42.942Z,20.25
2023-03-01T23:48:11.699Z,18.95
2023-03-01T23:50:42.210Z,18.08
2023-03-01T23:53:14.312Z,18.40
2023-03-01T23:55:45.900Z,19.25
2023-03-01T23:58:13.604Z,19.80
